createdAt,value
2022-10-18T00:00:00.602Z,102372.00
2022-10-18T00:02:32.775Z,102363.97
2022-10-18T00:05:05.634Z,102367.59
2022-10-18T00:07:37.554Z,102365.69
2022-10-18T00:10:10.626Z,102359.50
2022-10-18T00:12:42.954Z,102338.78
2022-10-18T00:19:29.204Z,102353.97
2022-10-18T00:22:01.486Z,102354.00
2022-10-18T00:24:33.466Z,102355.75
2022-10-18T00:27:05.405Z,102354.06
2022-10-18T00:33:56.512Z,102349.31
2022-10-18T00:36:31.477Z,102347.75
2022-10-18T00:39:05.860Z,102349.56
2022-10-18T00:41:38.457Z,102342.34
2022-10-18T00:44:13.372Z,102348.69
2022-10-18T00:46:48.659Z,102351.34
2022-10-18T00:49:47.741Z,102355.59
2022-10-18T00:52:28.977Z,102360.19
2022-10-18T00:55:01.895Z,102355.75
2022-10-18T00:57:34.840Z,102355.75
2022-10-18T01:00:10.254Z,102366.38
2022-10-18T01:02:46.325Z,102367.28
2022-10-18T01:09:56.070Z,102370.53
2022-10-18T01:12:59.305Z,102374.09
2022-10-18T01:15:47.382Z,102371.28
2022-10-18T01:18:31.185Z,102375.88
2022-10-18T01:21:53.807Z,102373.91
2022-10-18T01:24:53.377Z,102365.16
2022-10-18T01:27:44.358Z,102366.97
2022-10-18T01:30:37.924Z,102367.88
2022-10-18T01:33:41.882Z,102367.75
2022-10-18T01:36:36.055Z,102372.19
2022-10-18T01:39:18.530Z,102379.41
2022-10-18T01:41:53.814Z,102377.72
2022-10-18T01:44:29.929Z,102379.41
2022-10-18T01:47:03.983Z,102375.88
2022-10-18T01:49:36.162Z,102374.09
2022-10-18T01:52:14.157Z,102376.78
2022-10-18T01:54:49.145Z,102374.97
2022-10-18T01:57:44.536Z,102374.09
2022-10-18T02:00:44.374Z,102369.50
2022-10-18T02:03:25.846Z,102374.94
2022-10-18T02:06:13.307Z,102349.69
2022-10-18T02:08:59.614Z,102366.84
2022-10-18T02:11:33.956Z,102365.94
2022-10-18T02:14:14.329Z,102373.84
2022-10-18T02:16:53.913Z,102376.50
2022-10-18T02:19:43.997Z,102364.94
2022-10-18T02:22:17.460Z,102371.09
2022-10-18T02:24:55.167Z,102381.78
2022-10-18T02:27:27.238Z,102374.72
2022-10-18T02:29:59.428Z,102370.13
2022-10-18T02:33:04.788Z,102382.50
2022-10-18T02:35:44.719Z,102379.84
2022-10-18T02:38:20.505Z,102380.88
2022-10-18T02:40:52.942Z,102379.94
2022-10-18T02:43:25.855Z,102377.38
2022-10-18T02:45:57.952Z,102384.44
2022-10-18T02:48:30.170Z,102385.25
2022-10-18T02:51:02.043Z,102383.41
2022-10-18T02:53:33.943Z,102390.47
2022-10-18T02:56:06.411Z,102388.66
2022-10-18T02:58:38.287Z,102377.13
2022-10-18T03:01:10.239Z,102385.09
2022-10-18T03:03:42.199Z,102376.00
2022-10-18T03:06:14.081Z,102381.44
2022-10-18T03:08:46.115Z,102380.56
2022-10-18T03:11:18.081Z,102385.81
2022-10-18T03:13:51.074Z,102379.38
2022-10-18T03:16:23.127Z,102390.22
2022-10-18T03:18:55.033Z,102384.91
2022-10-18T03:21:26.993Z,102378.66
2022-10-18T03:23:59.758Z,102366.00
2022-10-18T03:26:31.660Z,102385.63
2022-10-18T03:29:03.672Z,102393.75
2022-10-18T03:31:35.785Z,102385.63
2022-10-18T03:34:07.811Z,102398.91
2022-10-18T03:36:41.381Z,102397.91
2022-10-18T03:39:13.295Z,102397.78
2022-10-18T03:41:45.202Z,102400.44
2022-10-18T03:44:17.143Z,102399.53
2022-10-18T03:46:49.109Z,102395.22
2022-10-18T03:49:21.053Z,102392.56
2022-10-18T03:51:53.026Z,102385.53
2022-10-18T03:54:25.026Z,102388.25
2022-10-18T03:56:56.937Z,102378.28
2022-10-18T03:59:28.845Z,102383.78
2022-10-18T04:02:00.843Z,102380.22
2022-10-18T04:04:32.770Z,102374.91
2022-10-18T04:07:04.662Z,102379.31
2022-10-18T04:09:36.637Z,102382.84
2022-10-18T04:12:08.522Z,102375.72
2022-10-18T04:14:40.437Z,102378.38
2022-10-18T04:17:12.343Z,102385.44
2022-10-18T04:19:44.306Z,102382.72
2022-10-18T04:22:16.475Z,102378.25
2022-10-18T04:24:48.392Z,102379.06
2022-10-18T04:27:20.477Z,102379.94
2022-10-18T04:29:52.468Z,102385.16
2022-10-18T04:32:24.634Z,102385.84
2022-10-18T04:34:56.637Z,102396.56
2022-10-18T04:37:28.865Z,102392.09
2022-10-18T04:40:01.097Z,102389.44
2022-10-18T04:42:33.036Z,102394.75
2022-10-18T04:45:05.485Z,102385.91
2022-10-18T04:47:37.814Z,102388.50
2022-10-18T04:50:09.862Z,102394.59
2022-10-18T04:52:41.802Z,102380.16
2022-10-18T04:55:13.808Z,102396.28
2022-10-18T04:57:45.842Z,102400.69
2022-10-18T05:00:17.892Z,102407.72
2022-10-18T05:02:49.761Z,102405.00
2022-10-18T05:05:21.661Z,102404.84
2022-10-18T05:07:53.554Z,102397.78
2022-10-18T05:10:25.506Z,102396.88
2022-10-18T05:12:57.380Z,102397.72
2022-10-18T05:15:29.337Z,102396.75
2022-10-18T05:18:01.248Z,102399.41
2022-10-18T05:20:33.216Z,102403.75
2022-10-18T05:23:05.088Z,102410.75
2022-10-18T05:25:41.276Z,102409.84
2022-10-18T05:28:38.152Z,102412.44
2022-10-18T05:31:07.918Z,102412.41
2022-10-18T05:33:40.044Z,102412.44
2022-10-18T05:36:11.994Z,102416.78
2022-10-18T05:38:45.412Z,102414.13
2022-10-18T05:41:17.305Z,102411.38
2022-10-18T05:43:49.214Z,102412.09
2022-10-18T05:46:21.140Z,102411.06
2022-10-18T05:48:53.023Z,102403.81
2022-10-18T05:51:25.052Z,102400.34
2022-10-18T05:53:57.075Z,102402.97
2022-10-18T05:56:29.195Z,102415.47
2022-10-18T05:59:01.264Z,102427.78
2022-10-18T06:01:33.168Z,102431.41
2022-10-18T06:04:05.473Z,102434.00
2022-10-18T06:06:38.720Z,102432.19
2022-10-18T06:09:10.700Z,102437.47
2022-10-18T06:11:42.599Z,102428.59
2022-10-18T06:14:14.511Z,102439.22
2022-10-18T06:16:46.379Z,102434.31
2022-10-18T06:19:18.452Z,102434.44
2022-10-18T06:21:50.359Z,102434.56
2022-10-18T06:24:22.427Z,102443.50
2022-10-18T06:26:54.336Z,102446.97
2022-10-18T06:29:26.254Z,102454.94
2022-10-18T06:31:58.116Z,102452.16
2022-10-18T06:34:30.089Z,102453.19
2022-10-18T06:37:02.004Z,102449.56
2022-10-18T06:39:34.202Z,102461.06
2022-10-18T06:42:06.129Z,102453.19
2022-10-18T06:44:37.979Z,102453.31
2022-10-18T06:47:09.848Z,102455.13
2022-10-18T06:49:41.814Z,102463.13
2022-10-18T06:52:13.710Z,102467.53
2022-10-18T06:54:45.621Z,102472.91
2022-10-18T06:57:17.531Z,102480.03
2022-10-18T06:59:50.110Z,102482.69
2022-10-18T07:02:22.003Z,102477.09
2022-10-18T07:04:54.162Z,102487.13
2022-10-18T07:07:26.084Z,102478.13
2022-10-18T07:09:57.959Z,102488.00
2022-10-18T07:12:31.129Z,102491.47
2022-10-18T07:15:08.267Z,102509.09
2022-10-18T07:17:41.842Z,102490.97
2022-10-18T07:20:13.793Z,102490.97
2022-10-18T07:22:45.689Z,102506.38
2022-10-18T07:25:17.722Z,102501.91
2022-10-18T07:27:49.661Z,102516.06
2022-10-18T07:30:21.638Z,102527.69
2022-10-18T07:32:53.656Z,102528.63
2022-10-18T07:35:25.515Z,102528.75
2022-10-18T07:37:57.442Z,102534.16
2022-10-18T07:40:29.308Z,102536.00
2022-10-18T07:43:04.546Z,102549.19
2022-10-18T07:48:09.690Z,102548.41
2022-10-18T07:50:41.556Z,102568.06
2022-10-18T07:53:13.602Z,102568.97
2022-10-18T07:55:45.693Z,102569.91
2022-10-18T07:58:17.617Z,102578.69
2022-10-18T08:00:49.506Z,102583.16
2022-10-18T08:03:21.473Z,102575.09
2022-10-18T08:05:54.873Z,102590.53
2022-10-18T08:08:27.164Z,102582.69
2022-10-18T08:11:06.670Z,102595.13
2022-10-18T08:13:38.875Z,102579.13
2022-10-18T08:16:18.741Z,102599.19
2022-10-18T08:18:51.254Z,102599.59
2022-10-18T08:21:23.223Z,102593.16
2022-10-18T08:23:55.341Z,102606.94
2022-10-18T08:26:27.372Z,102607.06
2022-10-18T08:29:17.687Z,102610.63
2022-10-18T08:31:51.555Z,102616.09
2022-10-18T08:34:23.522Z,102608.38
2022-10-18T08:36:55.415Z,102618.78
2022-10-18T08:39:27.396Z,102627.81
2022-10-18T08:42:34.509Z,102621.66
2022-10-18T08:45:18.031Z,102622.59
2022-10-18T08:48:04.517Z,102605.66
2022-10-18T08:50:38.471Z,102623.69
2022-10-18T08:53:24.398Z,102618.44
2022-10-18T08:56:18.898Z,102622.78
2022-10-18T08:58:50.943Z,102626.34
2022-10-18T09:01:56.728Z,102634.31
2022-10-18T09:04:46.615Z,102632.00
2022-10-18T09:07:41.922Z,102625.84
2022-10-18T09:11:00.268Z,102627.59
2022-10-18T09:13:59.710Z,102630.38
2022-10-18T09:16:55.117Z,102624.91
2022-10-18T09:19:48.415Z,102627.03
2022-10-18T09:22:33.280Z,102627.69
2022-10-18T09:25:51.547Z,102624.84
2022-10-18T09:28:47.721Z,102622.31
2022-10-18T09:31:35.509Z,102633.56
2022-10-18T09:34:36.119Z,102610.88
2022-10-18T09:37:19.209Z,102619.38
2022-10-18T09:40:00.056Z,102608.94
2022-10-18T09:42:39.495Z,102626.31
2022-10-18T09:45:30.800Z,102621.38
2022-10-18T09:48:31.245Z,102626.97
2022-10-18T09:51:22.175Z,102622.13
2022-10-18T09:54:35.991Z,102638.50
2022-10-18T09:57:23.856Z,102628.16
2022-10-18T09:59:57.866Z,102625.94
2022-10-18T10:02:29.826Z,102628.22
2022-10-18T10:05:01.793Z,102622.34
2022-10-18T10:07:45.873Z,102617.22
2022-10-18T10:10:25.483Z,102613.06
2022-10-18T10:13:09.180Z,102610.72
2022-10-18T10:15:54.754Z,102610.09
2022-10-18T10:18:31.771Z,102608.50
2022-10-18T10:21:15.036Z,102610.50
2022-10-18T10:23:53.340Z,102607.22
2022-10-18T10:26:32.149Z,102585.84
2022-10-18T10:29:04.492Z,102613.66
2022-10-18T10:31:37.723Z,102604.00
2022-10-18T10:34:15.619Z,102607.00
2022-10-18T10:36:55.375Z,102619.66
2022-10-18T10:39:27.261Z,102626.94
2022-10-18T10:42:01.275Z,102628.78
2022-10-18T10:44:36.595Z,102622.50
2022-10-18T10:47:08.516Z,102627.00
2022-10-18T10:49:47.823Z,102615.19
2022-10-18T10:52:28.292Z,102643.28
2022-10-18T10:55:30.510Z,102638.66
2022-10-18T10:57:56.714Z,102630.75
2022-10-18T11:00:44.771Z,102630.94
2022-10-18T11:03:29.123Z,102645.63
2022-10-18T11:06:02.113Z,102644.06
2022-10-18T11:08:42.119Z,102641.63
2022-10-18T11:11:28.577Z,102637.28
2022-10-18T11:14:30.340Z,102639.31
2022-10-18T11:17:39.969Z,102634.13
2022-10-18T11:20:51.666Z,102646.75
2022-10-18T11:23:32.376Z,102636.28
2022-10-18T11:26:13.584Z,102634.41
2022-10-18T11:29:10.430Z,102638.13
2022-10-18T11:32:13.679Z,102637.75
2022-10-18T11:35:38.841Z,102630.81
2022-10-18T11:38:29.040Z,102629.94
2022-10-18T11:41:13.830Z,102624.59
2022-10-18T11:44:03.624Z,102632.56
2022-10-18T11:46:59.312Z,102615.22
2022-10-18T11:49:52.702Z,102620.50
2022-10-18T11:52:51.301Z,102632.47
2022-10-18T11:55:47.467Z,102626.09
2022-10-18T11:58:49.536Z,102631.63
2022-10-18T12:02:21.776Z,102629.06
2022-10-18T12:05:22.491Z,102629.22
2022-10-18T12:08:18.701Z,102616.66
2022-10-18T12:11:05.558Z,102623.66
2022-10-18T12:13:49.918Z,102618.00
2022-10-18T12:16:49.537Z,102620.78
2022-10-18T12:19:29.430Z,102610.50
2022-10-18T12:22:42.876Z,102599.38
2022-10-18T12:25:18.155Z,102601.63
2022-10-18T12:28:32.791Z,102602.13
2022-10-18T12:31:19.600Z,102599.94
2022-10-18T12:34:17.856Z,102605.63
2022-10-18T12:36:55.609Z,102590.78
2022-10-18T12:39:43.406Z,102603.53
2022-10-18T12:42:26.825Z,102584.09
2022-10-18T12:45:46.408Z,102587.94
2022-10-18T12:48:42.575Z,102584.59
2022-10-18T12:51:22.430Z,102575.81
2022-10-18T12:54:12.461Z,102541.59
2022-10-18T12:56:46.735Z,102580.44
2022-10-18T12:59:18.796Z,102588.59
2022-10-18T13:01:50.786Z,102570.78
2022-10-18T13:04:28.950Z,102572.69
2022-10-18T13:07:00.862Z,102574.59
2022-10-18T13:09:36.399Z,102561.09
2022-10-18T13:12:11.409Z,102560.19
2022-10-18T13:15:27.709Z,102564.69
2022-10-18T13:18:20.980Z,102558.41
2022-10-18T13:21:17.196Z,102561.00
2022-10-18T13:24:10.067Z,102561.06
2022-10-18T13:27:35.481Z,102557.69
2022-10-18T13:30:31.197Z,102561.31
2022-10-18T13:33:25.946Z,102547.84
2022-10-18T13:36:04.558Z,102558.72
2022-10-18T13:39:02.594Z,102550.72
2022-10-18T13:41:43.686Z,102551.78
2022-10-18T13:44:37.858Z,102559.09
2022-10-18T13:47:13.356Z,102560.97
2022-10-18T13:49:50.769Z,102556.50
2022-10-18T13:52:48.409Z,102557.38
2022-10-18T13:55:55.891Z,102570.81
2022-10-18T13:58:48.793Z,102559.16
2022-10-18T14:01:49.510Z,102561.59
2022-10-18T14:04:48.009Z,102563.00
2022-10-18T14:07:21.172Z,102557.16
2022-10-18T14:09:58.505Z,102568.34
2022-10-18T14:12:48.898Z,102566.41
2022-10-18T14:15:34.713Z,102569.50
2022-10-18T14:18:22.037Z,102561.91
2022-10-18T14:21:22.030Z,102565.88
2022-10-18T14:23:54.839Z,102565.28
2022-10-18T14:26:29.270Z,102557.41
2022-10-18T14:29:22.968Z,102556.59
2022-10-18T14:31:55.617Z,102546.75
2022-10-18T14:34:27.718Z,102558.47
2022-10-18T14:36:59.681Z,102559.34
2022-10-18T14:39:32.840Z,102566.53
2022-10-18T14:42:04.769Z,102555.81
2022-10-18T14:44:36.711Z,102558.47
2022-10-18T14:47:21.705Z,102553.09
2022-10-18T14:49:54.598Z,102562.97
2022-10-18T14:52:35.674Z,102555.72
2022-10-18T14:55:28.696Z,102552.13
2022-10-18T14:58:00.782Z,102546.72
2022-10-18T15:00:37.809Z,102552.06
2022-10-18T15:03:16.696Z,102544.00
2022-10-18T15:06:00.152Z,102545.78
2022-10-18T15:08:39.841Z,102550.19
2022-10-18T15:11:16.042Z,102544.69
2022-10-18T15:14:16.056Z,102547.44
2022-10-18T15:16:52.401Z,102543.84
2022-10-18T15:19:39.502Z,102544.72
2022-10-18T15:25:18.611Z,102546.31
2022-10-18T15:28:00.127Z,102546.25
2022-10-18T15:30:43.023Z,102542.63
2022-10-18T15:33:26.009Z,102527.38
2022-10-18T15:36:20.497Z,102539.06
2022-10-18T15:38:52.639Z,102538.13
2022-10-18T15:41:54.647Z,102546.34
2022-10-18T15:44:51.627Z,102548.22
2022-10-18T15:47:24.992Z,102539.22
2022-10-18T15:49:59.056Z,102543.69
2022-10-18T15:52:43.134Z,102544.69
2022-10-18T15:55:45.680Z,102542.97
2022-10-18T15:58:28.870Z,102551.09
2022-10-18T16:01:04.414Z,102553.81
2022-10-18T16:03:36.969Z,102543.06
2022-10-18T16:06:14.573Z,102536.84
2022-10-18T16:08:53.144Z,102554.91
2022-10-18T16:11:26.373Z,102555.72
2022-10-18T16:14:00.405Z,102559.03
2022-10-18T16:16:33.253Z,102554.19
2022-10-18T16:19:05.270Z,102556.47
2022-10-18T16:21:39.310Z,102556.06
2022-10-18T16:24:11.651Z,102558.34
2022-10-18T16:26:43.642Z,102567.72
2022-10-18T16:29:25.583Z,102579.78
2022-10-18T16:31:58.485Z,102574.00
2022-10-18T16:34:32.209Z,102566.38
2022-10-18T16:37:04.134Z,102581.19
2022-10-18T16:39:36.012Z,102582.63
2022-10-18T16:42:07.962Z,102582.25
2022-10-18T16:44:39.928Z,102594.41
2022-10-18T16:47:11.816Z,102595.88
2022-10-18T16:49:45.182Z,102599.94
2022-10-18T16:52:17.128Z,102605.94
2022-10-18T16:54:49.029Z,102616.31
2022-10-18T16:57:20.934Z,102626.03
2022-10-18T16:59:52.888Z,102627.38
2022-10-18T17:02:24.829Z,102619.09
2022-10-18T17:04:56.703Z,102628.63
2022-10-18T17:07:28.613Z,102629.25
2022-10-18T17:10:00.497Z,102624.59
2022-10-18T17:12:32.770Z,102618.97
2022-10-18T17:15:05.760Z,102632.16
2022-10-18T17:17:38.712Z,102627.50
2022-10-18T17:20:24.097Z,102628.97
2022-10-18T17:22:56.038Z,102629.69
2022-10-18T17:25:28.027Z,102617.66
2022-10-18T17:27:59.975Z,102631.09
2022-10-18T17:30:33.398Z,102629.16
2022-10-18T17:33:08.564Z,102639.66
2022-10-18T17:35:41.546Z,102636.84
2022-10-18T17:38:13.478Z,102639.19
2022-10-18T17:40:45.347Z,102645.19
2022-10-18T17:43:17.257Z,102653.00
2022-10-18T17:45:58.861Z,102646.44
2022-10-18T17:48:31.202Z,102643.47
2022-10-18T17:51:15.793Z,102655.03
2022-10-18T17:53:48.028Z,102660.03
2022-10-18T17:56:19.971Z,102667.13
2022-10-18T17:58:52.507Z,102652.38
2022-10-18T18:01:25.517Z,102660.19
2022-10-18T18:04:01.260Z,102673.59
2022-10-18T18:06:39.022Z,102668.91
2022-10-18T18:09:15.201Z,102666.97
2022-10-18T18:11:50.834Z,102669.34
2022-10-18T18:14:22.851Z,102672.75
2022-10-18T18:16:55.048Z,102654.56
2022-10-18T18:19:26.998Z,102669.91
2022-10-18T18:21:59.479Z,102676.78
2022-10-18T18:24:31.779Z,102673.03
2022-10-18T18:27:03.746Z,102673.75
2022-10-18T18:29:35.698Z,102671.72
2022-10-18T18:32:07.928Z,102683.06
2022-10-18T18:34:41.596Z,102678.34
2022-10-18T18:37:13.522Z,102679.97
2022-10-18T18:39:45.420Z,102676.25
2022-10-18T18:42:17.317Z,102676.97
2022-10-18T18:44:50.034Z,102673.41
2022-10-18T18:47:23.497Z,102668.50
2022-10-18T18:49:55.615Z,102675.44
2022-10-18T18:52:27.525Z,102669.81
2022-10-18T18:54:59.530Z,102673.91
2022-10-18T18:57:31.660Z,102677.38
2022-10-18T19:00:04.619Z,102679.84
2022-10-18T19:02:36.528Z,102676.97
2022-10-18T19:05:08.691Z,102673.97
2022-10-18T19:07:40.679Z,102675.75
2022-10-18T19:10:13.372Z,102680.84
2022-10-18T19:12:45.332Z,102675.28
2022-10-18T19:15:17.520Z,102666.97
2022-10-18T19:17:49.750Z,102672.25
2022-10-18T19:20:21.886Z,102665.63
2022-10-18T19:22:53.887Z,102641.69
2022-10-18T19:25:27.044Z,102680.41
2022-10-18T19:27:59.070Z,102680.91
2022-10-18T19:30:30.988Z,102673.75
2022-10-18T19:33:04.659Z,102690.38
2022-10-18T19:35:37.360Z,102678.75
2022-10-18T19:38:09.248Z,102682.97
2022-10-18T19:40:41.147Z,102678.25
2022-10-18T19:43:13.025Z,102687.88
2022-10-18T19:45:44.965Z,102689.47
2022-10-18T19:48:16.943Z,102689.13
2022-10-18T19:50:50.367Z,102691.56
2022-10-18T19:53:22.565Z,102683.44
2022-10-18T19:56:02.728Z,102689.38
2022-10-18T19:58:34.912Z,102679.16
2022-10-18T20:01:06.871Z,102698.78
2022-10-18T20:03:38.887Z,102689.78
2022-10-18T20:06:11.744Z,102700.16
2022-10-18T20:08:43.957Z,102696.56
2022-10-18T20:11:20.416Z,102700.66
2022-10-18T20:13:52.864Z,102706.59
2022-10-18T20:16:30.983Z,102707.28
2022-10-18T20:19:06.993Z,102702.63
2022-10-18T20:21:39.955Z,102690.75
2022-10-18T20:24:12.421Z,102687.06
2022-10-18T20:26:44.437Z,102680.56
2022-10-18T20:29:16.508Z,102677.66
2022-10-18T20:31:48.556Z,102687.34
2022-10-18T20:34:25.152Z,102684.56
2022-10-18T20:36:57.124Z,102677.16
2022-10-18T20:39:29.044Z,102682.34
2022-10-18T20:42:00.987Z,102683.03
2022-10-18T20:44:33.983Z,102673.84
2022-10-18T20:47:05.914Z,102686.44
2022-10-18T20:49:38.123Z,102681.78
2022-10-18T20:52:10.084Z,102686.03
2022-10-18T20:54:42.203Z,102681.28
2022-10-18T20:57:14.088Z,102686.50
2022-10-18T20:59:46.162Z,102678.28
2022-10-18T21:02:18.035Z,102676.97
2022-10-18T21:04:49.972Z,102683.03
2022-10-18T21:07:21.913Z,102690.16
2022-10-18T21:09:53.827Z,102681.97
2022-10-18T21:12:27.587Z,102685.31
2022-10-18T21:15:00.975Z,102679.88
2022-10-18T21:17:32.952Z,102675.34
2022-10-18T21:20:06.111Z,102677.75
2022-10-18T21:22:38.027Z,102678.53
2022-10-18T21:25:10.723Z,102679.28
2022-10-18T21:27:45.106Z,102683.69
2022-10-18T21:30:17.191Z,102678.16
2022-10-18T21:32:52.555Z,102693.13
2022-10-18T21:35:24.665Z,102690.28
2022-10-18T21:37:56.587Z,102692.78
2022-10-18T21:40:28.708Z,102690.78
2022-10-18T21:43:00.591Z,102686.22
2022-10-18T21:45:32.459Z,102680.78
2022-10-18T21:48:04.847Z,102680.75
2022-10-18T21:50:36.785Z,102674.38
2022-10-18T21:53:08.662Z,102676.78
2022-10-18T21:55:40.633Z,102679.28
2022-10-18T21:58:12.561Z,102672.03
2022-10-18T22:00:44.449Z,102682.59
2022-10-18T22:03:16.480Z,102676.34
2022-10-18T22:06:09.276Z,102673.22
2022-10-18T22:08:55.472Z,102672.34
2022-10-18T22:11:40.133Z,102671.09
2022-10-18T22:14:12.348Z,102670.94
2022-10-18T22:16:44.280Z,102673.53
2022-10-18T22:19:16.182Z,102672.47
2022-10-18T22:21:48.745Z,102670.66
2022-10-18T22:24:20.784Z,102674.03
2022-10-18T22:26:52.648Z,102673.03
2022-10-18T22:29:24.582Z,102670.19
2022-10-18T22:31:56.524Z,102664.47
2022-10-18T22:34:28.521Z,102670.66
2022-10-18T22:37:00.398Z,102671.47
2022-10-18T22:39:32.388Z,102672.25
2022-10-18T22:42:06.118Z,102682.72
2022-10-18T22:44:37.986Z,102671.00
2022-10-18T22:47:09.891Z,102671.78
2022-10-18T22:49:41.848Z,102671.44
2022-10-18T22:52:13.728Z,102669.44
2022-10-18T22:54:45.652Z,102666.81
2022-10-18T22:57:17.529Z,102668.41
2022-10-18T22:59:49.471Z,102670.03
2022-10-18T23:02:21.394Z,102666.34
2022-10-18T23:04:53.284Z,102664.44
2022-10-18T23:07:25.168Z,102665.91
2022-10-18T23:09:58.103Z,102665.75
2022-10-18T23:12:30.162Z,102663.78
2022-10-18T23:15:02.552Z,102656.34
2022-10-18T23:17:34.689Z,102669.66
2022-10-18T23:20:07.509Z,102670.56
2022-10-18T23:22:39.345Z,102669.41
2022-10-18T23:25:11.228Z,102679.97
2022-10-18T23:30:19.859Z,102669.88
2022-10-18T23:32:51.733Z,102677.81
2022-10-18T23:35:23.801Z,102674.09
2022-10-18T23:37:55.741Z,102672.31
2022-10-18T23:40:27.768Z,102673.06
2022-10-18T23:42:59.627Z,102670.16
2022-10-18T23:45:31.515Z,102673.53
2022-10-18T23:48:03.880Z,102677.66
2022-10-18T23:50:35.788Z,102671.38
2022-10-18T23:53:07.652Z,102675.50
2022-10-18T23:55:39.760Z,102673.66
2022-10-18T23:58:11.765Z,102660.13
